createdAt,value
2023-03-29T00:02:55.260Z,500.00
2023-03-29T00:06:56.236Z,500.00
2023-03-29T00:14:55.638Z,435.00
2023-03-29T00:22:55.535Z,504.00
2023-03-29T00:30:55.443Z,501.00
2023-03-29T00:38:55.328Z,500.00
2023-03-29T00:46:55.435Z,517.00
2023-03-29T00:54:55.322Z,520.00
2023-03-29T00:58:56.263Z,500.00
2023-03-29T01:02:56.260Z,517.00
2023-03-29T01:06:56.218Z,500.00
2023-03-29T01:10:56.265Z,507.00
2023-03-29T01:14:56.193Z,521.00
2023-03-29T01:18:56.117Z,503.00
2023-03-29T01:22:56.062Z,512.00
2023-03-29T01:26:55.972Z,501.00
2023-03-29T01:30:55.927Z,513.00
2023-03-29T01:34:55.862Z,503.00
2023-03-29T01:38:55.849Z,510.00
2023-03-29T01:42:55.883Z,504.00
2023-03-29T01:46:56.051Z,513.00
2023-03-29T01:50:56.209Z,521.00
2023-03-29T01:54:56.355Z,521.00
2023-03-29T01:58:56.467Z,528.00
2023-03-29T02:06:55.844Z,519.00
2023-03-29T02:14:56.204Z,514.00
2023-03-29T02:22:56.137Z,523.00
2023-03-29T02:26:57.081Z,509.00
2023-03-29T02:30:57.026Z,509.00
2023-03-29T02:34:56.965Z,514.00
2023-03-29T02:38:56.920Z,511.00
2023-03-29T02:42:57.015Z,518.00
2023-03-29T02:46:57.247Z,510.00
2023-03-29T02:50:57.346Z,511.00
2023-03-29T02:54:57.277Z,503.00
2023-03-29T02:58:57.747Z,518.00
2023-03-29T03:02:58.756Z,511.00
2023-03-29T03:06:57.101Z,518.00
2023-03-29T03:10:57.046Z,514.00
2023-03-29T03:14:57.013Z,514.00
2023-03-29T03:18:56.950Z,510.00
2023-03-29T03:22:56.853Z,516.00
2023-03-29T03:26:56.801Z,507.00
2023-03-29T03:30:56.923Z,520.00
2023-03-29T03:34:56.960Z,518.00
2023-03-29T03:38:57.114Z,521.00
2023-03-29T03:42:57.247Z,519.00
2023-03-29T03:46:57.310Z,514.00
2023-03-29T03:50:57.299Z,518.00
2023-03-29T03:54:57.393Z,521.00
2023-03-29T03:58:57.539Z,518.00
2023-03-29T04:02:57.730Z,526.00
2023-03-29T04:06:57.743Z,510.00
2023-03-29T04:10:57.756Z,522.00
2023-03-29T04:18:56.909Z,529.00
2023-03-29T04:22:57.867Z,521.00
2023-03-29T04:30:57.142Z,516.00
2023-03-29T04:38:57.747Z,525.00
2023-03-29T04:46:57.456Z,521.00
2023-03-29T04:54:57.681Z,520.00
2023-03-29T05:02:58.020Z,524.00
2023-03-29T05:10:58.258Z,522.00
2023-03-29T09:02:58.930Z,1715.00
2023-03-29T09:07:00.120Z,1871.00
2023-03-29T11:02:57.037Z,1915.00
2023-03-29T11:10:56.896Z,2081.00
2023-03-29T11:18:56.405Z,2187.00
2023-03-29T11:22:57.400Z,2245.00
2023-03-29T11:26:57.399Z,2284.00
2023-03-29T11:34:56.403Z,2364.00
2023-03-29T11:46:56.335Z,2417.00
2023-03-29T11:50:57.404Z,2417.00
2023-03-29T11:58:56.922Z,2433.00
2023-03-29T12:06:56.920Z,2306.00
2023-03-29T12:14:56.909Z,1219.00
2023-03-29T12:22:56.921Z,518.00
2023-03-29T12:30:57.432Z,924.00
2023-03-29T12:42:56.946Z,1633.00
2023-03-29T12:50:56.488Z,2024.00
2023-03-29T12:54:57.457Z,2185.00
2023-03-29T12:58:57.461Z,1989.00
2023-03-29T13:02:57.477Z,1837.00
2023-03-29T13:10:55.915Z,1367.00
2023-03-29T13:18:55.967Z,2031.00
2023-03-29T13:26:55.550Z,2330.00
2023-03-29T13:30:56.487Z,2203.00
2023-03-29T13:34:56.354Z,2154.00
2023-03-29T13:38:56.279Z,2118.00
2023-03-29T13:42:56.146Z,2084.00
2023-03-29T13:46:56.491Z,2073.00
2023-03-29T13:50:56.487Z,2046.00
2023-03-29T13:54:56.508Z,2034.00
2023-03-29T13:58:56.493Z,2005.00
2023-03-29T14:02:56.568Z,1969.00
2023-03-29T14:06:56.479Z,1972.00
2023-03-29T14:10:56.542Z,1954.00
2023-03-29T14:14:59.434Z,1944.00
2023-03-29T14:18:56.479Z,1943.00
2023-03-29T14:22:55.979Z,1907.00
2023-03-29T14:26:55.892Z,1911.00
2023-03-29T14:30:55.997Z,1894.00
2023-03-29T14:34:56.488Z,1869.00
2023-03-29T14:38:55.990Z,1859.00
2023-03-29T14:42:55.515Z,1844.00
2023-03-29T14:46:55.487Z,1832.00
2023-03-29T14:50:55.418Z,1799.00
2023-03-29T14:54:56.004Z,1796.00
2023-03-29T14:58:55.606Z,1786.00
2023-03-29T15:02:55.720Z,1760.00
2023-03-29T15:06:56.003Z,1751.00
2023-03-29T15:10:55.858Z,1732.00
2023-03-29T15:14:56.033Z,1725.00
2023-03-29T15:18:56.040Z,1716.00
2023-03-29T15:26:55.255Z,1659.00
2023-03-29T15:34:55.450Z,1649.00
2023-03-29T15:42:55.705Z,1639.00
2023-03-29T19:22:57.384Z,1232.00
2023-03-29T19:30:57.699Z,1260.00
2023-03-29T19:38:57.453Z,1241.00
2023-03-29T19:46:57.425Z,1239.00
2023-03-29T19:54:57.229Z,1192.00
2023-03-29T20:02:57.263Z,1201.00
2023-03-29T20:10:57.096Z,1191.00
2023-03-29T20:14:58.042Z,1182.00
2023-03-29T20:18:58.011Z,1167.00
2023-03-29T20:22:57.940Z,1156.00
2023-03-29T20:26:57.863Z,1156.00
2023-03-29T20:30:57.928Z,1126.00
2023-03-29T20:34:57.887Z,1141.00
2023-03-29T20:38:57.974Z,1155.00
2023-03-29T20:42:57.731Z,1139.00
2023-03-29T20:46:57.653Z,1117.00
2023-03-29T20:50:57.772Z,1108.00
2023-03-29T20:54:57.561Z,1099.00
2023-03-29T20:58:57.728Z,1090.00
2023-03-29T21:02:57.782Z,1103.00
2023-03-29T21:06:57.656Z,1090.00
2023-03-29T21:10:57.579Z,1066.00
2023-03-29T21:14:57.555Z,1086.00
2023-03-29T21:18:57.509Z,1057.00
2023-03-29T21:22:57.475Z,1024.00
2023-03-29T21:26:57.378Z,1039.00
2023-03-29T21:30:57.352Z,1037.00
2023-03-29T21:34:57.291Z,1045.00
2023-03-29T21:38:57.255Z,1010.00
2023-03-29T21:42:57.173Z,1000.00
2023-03-29T21:46:57.169Z,1012.00
2023-03-29T21:50:57.234Z,1023.00
2023-03-29T21:54:57.218Z,990.00
2023-03-29T21:58:57.133Z,1008.00
2023-03-29T22:02:57.163Z,997.00
2023-03-29T22:06:57.056Z,955.00
2023-03-29T22:10:57.096Z,954.00
2023-03-29T22:14:56.988Z,979.00
2023-03-29T22:18:57.199Z,964.00
2023-03-29T22:22:57.156Z,955.00
2023-03-29T22:26:57.142Z,974.00
2023-03-29T22:30:57.065Z,938.00
2023-03-29T22:34:57.032Z,933.00
2023-03-29T22:38:56.994Z,932.00
2023-03-29T22:42:56.980Z,951.00
2023-03-29T22:46:57.171Z,930.00
2023-03-29T22:50:57.133Z,906.00
2023-03-29T22:54:57.102Z,912.00
2023-03-29T22:58:57.092Z,908.00
2023-03-29T23:02:57.155Z,878.00
2023-03-29T23:06:57.003Z,903.00
2023-03-29T23:56:51.696Z,500.00
